Etusivu
METAR-TAF:

METAR-TAF

Lentoasemat :

Bahrainin kansainvälinen lentoasema

Bahrain, Bahrain

Leveyspiiri: 26-16N, Pituuspiiri: 050-39E, korkeus merenpinnasta: 2 m

Tämänhetkinen sää

Tämä raportti tehtiin 32 minuuttia sitten, kello 16.30 UTC
Tuuli 8 kn pohjoisesta
Lämpötila 23°C
Kosteus 44%
Ilmanpaine 1013 hPa
Näkyvyys 10 km tai enemmän
ei pilviä alle 1500 m:ssä eikä cumulonimbus-pilviä

METAR: OBBI 301630Z 35008KT CAVOK 23/10 Q1013 NOSIG

Aika: 20:02 (17:02 UTC)

Sääennuste

Tämä raportti tehtiin 6 tuntia ja 2 minuuttia sitten, kello 11.00 UTC
Ennuste voimassa 30. päivästä klo 12 UTC - 31. päivään klo 18 UTC
Tuuli 18 kn pohjoisen/luoteesta
Näkyvyys 10 km tai enemmän
ei pilviä alle 1500 m:ssä eikä cumulonimbus-pilviä
Tulossa
30. päivästä klo 16 UTC - 30. päivään klo 18 UTC
Tuuli 8 kn pohjoisen/luoteesta

TAF: OBBI 301100Z 3012/3118 34018KT CAVOK BECMG 3016/3018 34008KT

Säähavainnot ja -ennusteet yli 4000 lentoasemalta (METAR- ja TAF-raportit).

Käytössä olevat sääasemat on merkitty karttaan keltaisilla ja punaisilla pisteillä.

Aseta hiiri pisteen päälle nähdäksesi sääaseman nimen.

Klikkaa sitten nähdäksesi säähavainnot ja -ennusteet.

Kartan vaihtaminen: klikkaa mustalla rastilla varustettuja vihreitä pisteitä, niin voit zoomata sisään; viivalla varustettua vihreää pistettä, niin voit zoomata ulos tai vihreitä nuolia, niin pääset viereisille kartoille.


METAR-TAF: